createdAt,value
2024-03-16T00:02:03.601Z,0.65
2024-03-16T00:04:30.474Z,0.70
2024-03-16T00:06:59.119Z,0.70
2024-03-16T00:09:26.039Z,0.85
2024-03-16T00:11:52.785Z,0.82
2024-03-16T00:14:19.285Z,0.80
2024-03-16T00:16:45.818Z,1.00
2024-03-16T00:19:12.411Z,0.90
2024-03-16T00:21:39.016Z,0.88
2024-03-16T00:24:05.804Z,0.85
2024-03-16T00:26:32.298Z,0.80
2024-03-16T00:28:59.516Z,1.10
2024-03-16T00:31:26.137Z,0.90
2024-03-16T00:33:52.728Z,0.70
2024-03-16T00:36:19.259Z,0.90
2024-03-16T00:38:50.784Z,1.02
2024-03-16T00:41:21.230Z,1.20
2024-03-16T00:43:47.733Z,1.00
2024-03-16T00:46:14.378Z,1.13
2024-03-16T00:48:41.155Z,1.15
2024-03-16T00:51:07.794Z,1.33
2024-03-16T00:53:34.414Z,1.30
2024-03-16T00:56:00.994Z,1.13
2024-03-16T00:58:28.541Z,1.13
2024-03-16T01:00:55.193Z,0.93
2024-03-16T01:03:21.915Z,1.10
2024-03-16T01:05:54.484Z,1.13
2024-03-16T01:08:20.983Z,1.10
2024-03-16T01:10:55.215Z,1.30
2024-03-16T01:13:22.459Z,1.20
2024-03-16T01:15:49.252Z,1.08
2024-03-16T01:18:15.793Z,1.20
2024-03-16T01:20:45.828Z,1.10
2024-03-16T01:23:14.239Z,1.30
2024-03-16T01:25:41.261Z,1.33
2024-03-16T01:28:07.898Z,1.13
2024-03-16T01:30:34.485Z,1.07
2024-03-16T01:33:01.113Z,0.93
2024-03-16T01:35:27.743Z,1.02
2024-03-16T01:37:54.353Z,1.30
2024-03-16T01:40:25.834Z,1.25
2024-03-16T01:42:55.793Z,1.40
2024-03-16T01:45:22.500Z,1.17
2024-03-16T01:47:49.074Z,1.30
2024-03-16T01:50:19.753Z,1.40
2024-03-16T01:52:47.901Z,1.40
2024-03-16T01:55:16.252Z,1.30
2024-03-16T01:57:43.024Z,1.40
2024-03-16T02:00:13.127Z,1.20
2024-03-16T02:02:40.905Z,1.35
2024-03-16T02:05:08.644Z,1.38
2024-03-16T02:07:38.068Z,1.50
2024-03-16T02:10:06.325Z,1.67
2024-03-16T02:12:33.201Z,1.60
2024-03-16T02:15:00.701Z,1.60
2024-03-16T02:17:27.774Z,1.50
2024-03-16T02:19:54.406Z,1.60
2024-03-16T02:22:20.885Z,1.50
2024-03-16T02:24:50.592Z,1.50
2024-03-16T02:27:17.541Z,1.40
2024-03-16T02:29:44.203Z,1.60
2024-03-16T02:32:11.027Z,1.38
2024-03-16T02:34:38.469Z,1.50
2024-03-16T02:37:06.425Z,1.40
2024-03-16T02:39:33.839Z,1.20
2024-03-16T02:42:01.650Z,1.50
2024-03-16T02:44:28.253Z,1.70
2024-03-16T02:46:54.794Z,1.50
2024-03-16T02:49:23.932Z,1.58
2024-03-16T02:51:50.546Z,1.60
2024-03-16T02:54:17.678Z,1.77
2024-03-16T02:56:44.236Z,1.60
2024-03-16T02:59:10.979Z,1.60
2024-03-16T03:01:38.666Z,1.80
2024-03-16T03:04:06.614Z,1.67
2024-03-16T03:06:34.644Z,1.65
2024-03-16T03:09:01.709Z,1.77
2024-03-16T03:11:28.292Z,1.55
2024-03-16T03:13:54.998Z,1.90
2024-03-16T03:16:21.534Z,2.28
2024-03-16T03:18:49.020Z,2.00
2024-03-16T03:21:16.174Z,2.10
2024-03-16T03:23:43.047Z,2.15
2024-03-16T03:26:10.635Z,2.20
2024-03-16T03:28:37.343Z,2.00
2024-03-16T03:31:05.081Z,2.00
2024-03-16T03:33:32.127Z,2.20
2024-03-16T03:36:00.679Z,2.03
2024-03-16T03:38:27.489Z,2.08
2024-03-16T03:40:53.984Z,2.00
2024-03-16T03:43:22.801Z,2.20
2024-03-16T03:45:53.783Z,2.38
2024-03-16T03:48:24.204Z,2.17
2024-03-16T03:50:50.802Z,2.17
2024-03-16T03:53:18.191Z,2.47
2024-03-16T03:55:45.086Z,2.70
2024-03-16T03:58:11.840Z,2.27
2024-03-16T04:00:38.908Z,2.70
2024-03-16T04:03:07.714Z,2.67
2024-03-16T04:05:34.802Z,2.80
2024-03-16T04:08:01.984Z,2.30
2024-03-16T04:10:28.737Z,2.60
2024-03-16T04:12:55.423Z,2.63
2024-03-16T04:15:22.053Z,3.05
2024-03-16T04:17:48.642Z,2.65
2024-03-16T04:20:15.252Z,2.88
2024-03-16T04:22:42.651Z,2.85
2024-03-16T04:25:15.150Z,3.10
2024-03-16T04:27:47.232Z,2.92
2024-03-16T04:30:14.799Z,3.60
2024-03-16T04:32:41.390Z,3.35
2024-03-16T04:35:08.772Z,3.35
2024-03-16T04:37:36.189Z,3.20
2024-03-16T04:40:05.454Z,3.35
2024-03-16T04:42:32.408Z,3.17
2024-03-16T04:44:58.965Z,3.00
2024-03-16T04:47:25.497Z,3.22
2024-03-16T04:49:52.067Z,3.17
2024-03-16T04:52:18.639Z,3.20
2024-03-16T04:54:46.312Z,3.45
2024-03-16T04:57:13.750Z,2.90
2024-03-16T04:59:41.007Z,3.10
2024-03-16T05:02:07.818Z,3.00
2024-03-16T05:04:34.652Z,2.63
2024-03-16T05:07:01.289Z,2.60
2024-03-16T05:09:28.033Z,2.65
2024-03-16T05:11:54.729Z,2.20
2024-03-16T05:14:21.424Z,2.22
2024-03-16T05:16:47.969Z,2.55
2024-03-16T05:19:14.513Z,2.42
2024-03-16T05:21:42.151Z,2.70
2024-03-16T05:24:08.811Z,2.55
2024-03-16T05:26:35.751Z,3.03
2024-03-16T05:29:02.613Z,2.50
2024-03-16T05:31:29.157Z,2.50
2024-03-16T05:33:55.746Z,2.53
2024-03-16T05:36:22.340Z,2.30
2024-03-16T05:38:48.946Z,2.15
2024-03-16T05:41:15.905Z,2.30
2024-03-16T05:43:45.662Z,2.13
2024-03-16T05:46:12.874Z,2.00
2024-03-16T05:48:39.886Z,1.80
2024-03-16T05:51:06.627Z,1.73
2024-03-16T05:53:33.202Z,2.05
2024-03-16T05:55:59.796Z,1.77
2024-03-16T05:58:26.964Z,2.00
2024-03-16T06:00:53.647Z,1.80
2024-03-16T06:03:20.339Z,1.95
2024-03-16T06:05:47.011Z,2.28
2024-03-16T06:08:15.215Z,1.90
2024-03-16T06:10:42.838Z,1.90
2024-03-16T06:13:11.775Z,1.70
2024-03-16T06:15:40.542Z,1.98
2024-03-16T06:18:07.644Z,1.90
2024-03-16T06:20:34.266Z,1.87
2024-03-16T06:23:00.816Z,1.90
2024-03-16T06:25:30.455Z,1.73
2024-03-16T06:28:06.903Z,1.90
2024-03-16T06:30:34.201Z,1.80
2024-03-16T06:33:07.228Z,1.97
2024-03-16T06:35:34.650Z,2.25
2024-03-16T06:38:01.242Z,2.10
2024-03-16T06:40:27.845Z,2.00
2024-03-16T06:42:54.473Z,1.98
2024-03-16T06:45:21.039Z,1.50
2024-03-16T06:47:47.645Z,2.08
2024-03-16T06:50:14.422Z,1.70
2024-03-16T06:52:41.094Z,1.70
2024-03-16T06:55:10.734Z,2.03
2024-03-16T06:57:37.348Z,1.80
2024-03-16T07:00:05.088Z,1.57
2024-03-16T07:02:31.872Z,1.65
2024-03-16T07:04:58.463Z,2.00
2024-03-16T07:07:24.975Z,1.40
2024-03-16T07:09:51.644Z,1.50
2024-03-16T07:12:18.208Z,1.40
2024-03-16T07:14:44.842Z,1.50
2024-03-16T07:17:11.399Z,1.60
2024-03-16T07:19:38.070Z,1.50
2024-03-16T07:22:04.829Z,1.65
2024-03-16T07:24:31.456Z,1.58
2024-03-16T07:26:58.073Z,1.65
2024-03-16T07:29:25.208Z,1.20
2024-03-16T07:31:52.003Z,1.10
2024-03-16T07:34:18.859Z,1.15
2024-03-16T07:36:45.795Z,1.00
2024-03-16T07:39:12.504Z,1.30
2024-03-16T07:41:39.178Z,1.00
2024-03-16T07:44:05.721Z,1.00
2024-03-16T07:46:32.250Z,1.10
2024-03-16T07:49:00.656Z,1.08
2024-03-16T07:51:30.339Z,0.90
2024-03-16T07:53:57.102Z,1.20
2024-03-16T07:56:23.660Z,0.98
2024-03-16T07:58:50.718Z,0.90
2024-03-16T08:01:17.638Z,1.00
2024-03-16T08:03:44.663Z,0.82
2024-03-16T08:06:12.116Z,0.60
2024-03-16T08:08:40.047Z,0.90
2024-03-16T08:11:08.392Z,0.52
2024-03-16T08:13:37.943Z,0.60
2024-03-16T08:16:05.158Z,0.70
2024-03-16T08:18:31.749Z,0.70
2024-03-16T08:20:59.021Z,0.60
2024-03-16T08:23:26.202Z,0.60
2024-03-16T08:25:52.935Z,0.60
2024-03-16T08:28:19.593Z,0.50
2024-03-16T08:30:46.378Z,0.60
2024-03-16T08:33:13.014Z,0.93
2024-03-16T08:35:40.138Z,0.70
2024-03-16T08:38:06.768Z,0.90
2024-03-16T08:40:34.046Z,0.70
2024-03-16T08:43:00.832Z,0.80
2024-03-16T08:45:27.511Z,0.90
2024-03-16T08:47:54.124Z,0.90
2024-03-16T08:50:20.770Z,1.00
2024-03-16T08:52:48.362Z,0.98
2024-03-16T08:55:15.257Z,1.00
2024-03-16T08:57:42.814Z,1.20
2024-03-16T09:00:13.777Z,1.30
2024-03-16T09:02:40.310Z,1.05
2024-03-16T09:05:09.736Z,1.40
2024-03-16T09:07:39.103Z,1.20
2024-03-16T09:10:09.725Z,1.27
2024-03-16T09:12:36.483Z,1.35
2024-03-16T09:15:06.703Z,1.48
2024-03-16T09:17:36.377Z,1.67
2024-03-16T09:20:09.575Z,1.80
2024-03-16T09:22:36.352Z,1.80
2024-03-16T09:25:07.238Z,2.00
2024-03-16T09:27:35.291Z,1.98
2024-03-16T09:30:02.899Z,2.20
2024-03-16T09:32:29.470Z,2.10
2024-03-16T09:34:56.152Z,2.20
2024-03-16T09:37:22.894Z,2.35
2024-03-16T09:39:49.681Z,2.35
2024-03-16T09:42:16.284Z,2.10
